sensor_id;sensor_type;location;lat;lon;timestamp;pressure;altitude;pressure_sealevel;temperature;humidity
28448;BME280;15675;52.870;-1.416;2023-05-29T00:02:13;102325.19;;;11.49;100.00
28448;BME280;15675;52.870;-1.416;2023-05-29T00:04:39;102329.22;;;11.38;100.00
28448;BME280;15675;52.870;-1.416;2023-05-29T00:07:05;102326.75;;;11.43;100.00
28448;BME280;15675;52.870;-1.416;2023-05-29T00:09:31;102324.66;;;11.28;100.00
28448;BME280;15675;52.870;-1.416;2023-05-29T00:11:56;102328.94;;;11.61;100.00
28448;BME280;15675;52.870;-1.416;2023-05-29T00:14:22;102331.06;;;11.09;100.00
28448;BME280;15675;52.870;-1.416;2023-05-29T00:16:49;102338.09;;;11.13;100.00
28448;BME280;15675;52.870;-1.416;2023-05-29T00:19:16;102335.16;;;11.32;100.00
28448;BME280;15675;52.870;-1.416;2023-05-29T00:21:49;102341.44;;;11.40;100.00
28448;BME280;15675;52.870;-1.416;2023-05-29T00:24:15;102343.91;;;11.34;100.00
28448;BME280;15675;52.870;-1.416;2023-05-29T00:26:41;102346.22;;;10.92;100.00
28448;BME280;15675;52.870;-1.416;2023-05-29T00:29:07;102344.88;;;10.76;100.00
28448;BME280;15675;52.870;-1.416;2023-05-29T00:31:32;102351.53;;;10.96;100.00
28448;BME280;15675;52.870;-1.416;2023-05-29T00:33:58;102343.53;;;10.90;100.00
28448;BME280;15675;52.870;-1.416;2023-05-29T00:36:23;102349.91;;;11.01;100.00
28448;BME280;15675;52.870;-1.416;2023-05-29T00:38:50;102345.03;;;10.80;100.00
28448;BME280;15675;52.870;-1.416;2023-05-29T00:41:16;102350.59;;;10.64;100.00
28448;BME280;15675;52.870;-1.416;2023-05-29T00:43:42;102347.75;;;10.85;100.00
28448;BME280;15675;52.870;-1.416;2023-05-29T00:46:12;102342.06;;;11.00;100.00
28448;BME280;15675;52.870;-1.416;2023-05-29T00:48:38;102344.69;;;11.00;100.00
28448;BME280;15675;52.870;-1.416;2023-05-29T00:51:04;102343.44;;;11.17;100.00
28448;BME280;15675;52.870;-1.416;2023-05-29T00:53:30;102344.31;;;11.18;100.00
28448;BME280;15675;52.870;-1.416;2023-05-29T00:55:58;102351.78;;;11.37;100.00
28448;BME280;15675;52.870;-1.416;2023-05-29T00:58:24;102347.19;;;11.62;100.00
28448;BME280;15675;52.870;-1.416;2023-05-29T01:00:49;102349.44;;;11.48;100.00
28448;BME280;15675;52.870;-1.416;2023-05-29T01:03:18;102349.75;;;11.61;100.00
28448;BME280;15675;52.870;-1.416;2023-05-29T01:05:44;102344.75;;;11.70;100.00
28448;BME280;15675;52.870;-1.416;2023-05-29T01:08:11;102352.63;;;12.06;100.00
28448;BME280;15675;52.870;-1.416;2023-05-29T01:10:37;102343.09;;;12.47;98.48
28448;BME280;15675;52.870;-1.416;2023-05-29T01:13:11;102343.38;;;12.59;94.19
28448;BME280;15675;52.870;-1.416;2023-05-29T01:15:54;102348.50;;;12.56;90.27
28448;BME280;15675;52.870;-1.416;2023-05-29T01:21:27;102353.66;;;12.53;87.44
28448;BME280;15675;52.870;-1.416;2023-05-29T01:24:14;102344.03;;;12.49;88.03
28448;BME280;15675;52.870;-1.416;2023-05-29T01:26:51;102356.81;;;12.01;90.97
28448;BME280;15675;52.870;-1.416;2023-05-29T01:29:19;102350.25;;;12.16;92.03
28448;BME280;15675;52.870;-1.416;2023-05-29T01:31:49;102360.31;;;12.02;92.09
28448;BME280;15675;52.870;-1.416;2023-05-29T01:34:15;102367.75;;;11.88;92.63
28448;BME280;15675;52.870;-1.416;2023-05-29T01:36:41;102357.22;;;11.82;93.65
28448;BME280;15675;52.870;-1.416;2023-05-29T01:39:07;102357.69;;;12.00;94.11
28448;BME280;15675;52.870;-1.416;2023-05-29T01:41:34;102356.22;;;12.12;92.65
28448;BME280;15675;52.870;-1.416;2023-05-29T01:44:02;102353.16;;;12.31;91.91
28448;BME280;15675;52.870;-1.416;2023-05-29T01:46:28;102349.28;;;12.52;89.95
28448;BME280;15675;52.870;-1.416;2023-05-29T01:48:54;102345.31;;;12.69;88.20
28448;BME280;15675;52.870;-1.416;2023-05-29T01:51:22;102344.50;;;12.72;85.22
28448;BME280;15675;52.870;-1.416;2023-05-29T01:53:48;102345.25;;;12.66;81.81
28448;BME280;15675;52.870;-1.416;2023-05-29T01:56:14;102340.94;;;12.68;79.00
28448;BME280;15675;52.870;-1.416;2023-05-29T01:58:40;102340.78;;;12.60;75.71
28448;BME280;15675;52.870;-1.416;2023-05-29T02:01:06;102352.94;;;12.60;74.81
28448;BME280;15675;52.870;-1.416;2023-05-29T02:03:33;102345.63;;;12.43;72.57
28448;BME280;15675;52.870;-1.416;2023-05-29T02:05:59;102341.38;;;12.47;71.99
28448;BME280;15675;52.870;-1.416;2023-05-29T02:08:26;102334.66;;;12.57;72.35
28448;BME280;15675;52.870;-1.416;2023-05-29T02:10:52;102344.81;;;12.46;74.13
28448;BME280;15675;52.870;-1.416;2023-05-29T02:13:18;102347.13;;;12.32;76.29
28448;BME280;15675;52.870;-1.416;2023-05-29T02:15:44;102353.28;;;12.36;77.01
28448;BME280;15675;52.870;-1.416;2023-05-29T02:18:11;102348.41;;;12.12;79.12
28448;BME280;15675;52.870;-1.416;2023-05-29T02:20:39;102360.28;;;12.00;81.53
28448;BME280;15675;52.870;-1.416;2023-05-29T02:23:05;102365.66;;;12.08;84.42
28448;BME280;15675;52.870;-1.416;2023-05-29T02:25:31;102357.13;;;12.14;85.85
28448;BME280;15675;52.870;-1.416;2023-05-29T02:27:56;102353.84;;;11.86;87.04
28448;BME280;15675;52.870;-1.416;2023-05-29T02:30:22;102351.41;;;11.58;88.27
28448;BME280;15675;52.870;-1.416;2023-05-29T02:32:48;102353.69;;;11.80;90.82
28448;BME280;15675;52.870;-1.416;2023-05-29T02:35:13;102357.28;;;11.85;91.42
28448;BME280;15675;52.870;-1.416;2023-05-29T02:37:41;102356.16;;;12.08;91.05
28448;BME280;15675;52.870;-1.416;2023-05-29T02:40:07;102346.28;;;12.33;88.84
28448;BME280;15675;52.870;-1.416;2023-05-29T02:42:34;102350.75;;;12.39;85.70
28448;BME280;15675;52.870;-1.416;2023-05-29T02:44:59;102347.47;;;12.48;82.63
28448;BME280;15675;52.870;-1.416;2023-05-29T02:47:25;102345.47;;;12.36;78.45
28448;BME280;15675;52.870;-1.416;2023-05-29T02:49:50;102352.19;;;12.24;75.77
28448;BME280;15675;52.870;-1.416;2023-05-29T02:52:16;102333.75;;;12.17;72.97
28448;BME280;15675;52.870;-1.416;2023-05-29T02:54:41;102340.97;;;11.92;70.53
28448;BME280;15675;52.870;-1.416;2023-05-29T02:57:07;102341.72;;;11.86;70.17
28448;BME280;15675;52.870;-1.416;2023-05-29T02:59:33;102336.88;;;11.67;69.84
28448;BME280;15675;52.870;-1.416;2023-05-29T03:01:58;102341.38;;;11.72;70.04
28448;BME280;15675;52.870;-1.416;2023-05-29T03:04:24;102348.16;;;11.66;70.51
28448;BME280;15675;52.870;-1.416;2023-05-29T03:06:49;102347.59;;;11.79;71.80
28448;BME280;15675;52.870;-1.416;2023-05-29T03:09:15;102346.31;;;11.97;72.02
28448;BME280;15675;52.870;-1.416;2023-05-29T03:11:42;102345.56;;;12.02;72.37
28448;BME280;15675;52.870;-1.416;2023-05-29T03:14:07;102342.22;;;12.06;72.29
28448;BME280;15675;52.870;-1.416;2023-05-29T03:16:34;102338.81;;;12.09;72.32
28448;BME280;15675;52.870;-1.416;2023-05-29T03:19:01;102340.00;;;12.23;72.77
28448;BME280;15675;52.870;-1.416;2023-05-29T03:21:27;102333.88;;;12.21;73.98
28448;BME280;15675;52.870;-1.416;2023-05-29T03:23:52;102327.13;;;12.31;74.36
28448;BME280;15675;52.870;-1.416;2023-05-29T03:26:18;102333.44;;;12.42;74.74
28448;BME280;15675;52.870;-1.416;2023-05-29T03:28:43;102333.34;;;12.36;73.83
28448;BME280;15675;52.870;-1.416;2023-05-29T03:31:09;102334.22;;;12.38;74.53
28448;BME280;15675;52.870;-1.416;2023-05-29T03:33:35;102334.22;;;12.38;75.59
28448;BME280;15675;52.870;-1.416;2023-05-29T03:36:01;102339.63;;;12.46;76.38
28448;BME280;15675;52.870;-1.416;2023-05-29T03:38:26;102340.03;;;12.25;77.75
28448;BME280;15675;52.870;-1.416;2023-05-29T03:40:53;102341.03;;;12.30;78.59
28448;BME280;15675;52.870;-1.416;2023-05-29T03:43:19;102344.03;;;12.49;79.36
28448;BME280;15675;52.870;-1.416;2023-05-29T03:45:44;102349.31;;;12.53;79.34
28448;BME280;15675;52.870;-1.416;2023-05-29T03:48:10;102344.09;;;12.52;79.26
28448;BME280;15675;52.870;-1.416;2023-05-29T03:50:35;102350.19;;;12.54;79.72
28448;BME280;15675;52.870;-1.416;2023-05-29T03:53:01;102347.94;;;11.58;82.65
28448;BME280;15675;52.870;-1.416;2023-05-29T03:55:26;102356.53;;;10.60;93.18
28448;BME280;15675;52.870;-1.416;2023-05-29T03:57:53;102352.66;;;10.45;100.00
28448;BME280;15675;52.870;-1.416;2023-05-29T04:00:19;102350.50;;;10.61;100.00
28448;BME280;15675;52.870;-1.416;2023-05-29T04:02:45;102361.91;;;10.37;100.00
28448;BME280;15675;52.870;-1.416;2023-05-29T04:05:10;102353.34;;;10.70;100.00
28448;BME280;15675;52.870;-1.416;2023-05-29T04:07:38;102358.50;;;10.68;100.00
28448;BME280;15675;52.870;-1.416;2023-05-29T04:10:04;102358.31;;;10.33;100.00
28448;BME280;15675;52.870;-1.416;2023-05-29T04:12:31;102366.88;;;10.58;100.00
28448;BME280;15675;52.870;-1.416;2023-05-29T04:14:57;102351.88;;;10.48;100.00
28448;BME280;15675;52.870;-1.416;2023-05-29T04:17:22;102353.75;;;10.84;100.00
28448;BME280;15675;52.870;-1.416;2023-05-29T04:19:48;102350.88;;;10.73;100.00
28448;BME280;15675;52.870;-1.416;2023-05-29T04:22:13;102355.09;;;10.69;100.00
28448;BME280;15675;52.870;-1.416;2023-05-29T04:24:39;102358.06;;;10.82;100.00
28448;BME280;15675;52.870;-1.416;2023-05-29T04:27:05;102355.50;;;10.83;100.00
28448;BME280;15675;52.870;-1.416;2023-05-29T04:29:31;102369.75;;;10.39;100.00
28448;BME280;15675;52.870;-1.416;2023-05-29T04:31:59;102365.34;;;10.65;100.00
28448;BME280;15675;52.870;-1.416;2023-05-29T04:34:29;102363.31;;;10.85;100.00
28448;BME280;15675;52.870;-1.416;2023-05-29T04:36:56;102369.34;;;10.84;100.00
28448;BME280;15675;52.870;-1.416;2023-05-29T04:39:24;102375.84;;;11.00;100.00
28448;BME280;15675;52.870;-1.416;2023-05-29T04:41:50;102377.34;;;10.61;100.00
28448;BME280;15675;52.870;-1.416;2023-05-29T04:44:19;102386.25;;;10.69;100.00
28448;BME280;15675;52.870;-1.416;2023-05-29T04:46:44;102378.41;;;10.68;100.00
28448;BME280;15675;52.870;-1.416;2023-05-29T04:49:11;102379.34;;;10.70;100.00
28448;BME280;15675;52.870;-1.416;2023-05-29T04:51:38;102388.75;;;10.66;100.00
28448;BME280;15675;52.870;-1.416;2023-05-29T04:54:06;102389.28;;;10.55;100.00
28448;BME280;15675;52.870;-1.416;2023-05-29T04:56:32;102383.16;;;10.52;100.00
28448;BME280;15675;52.870;-1.416;2023-05-29T04:58:57;102386.47;;;10.77;100.00
28448;BME280;15675;52.870;-1.416;2023-05-29T05:01:24;102386.22;;;10.98;100.00
28448;BME280;15675;52.870;-1.416;2023-05-29T05:03:51;102384.81;;;10.79;100.00
28448;BME280;15675;52.870;-1.416;2023-05-29T05:06:19;102386.84;;;11.21;100.00
28448;BME280;15675;52.870;-1.416;2023-05-29T05:08:45;102388.66;;;11.24;100.00
28448;BME280;15675;52.870;-1.416;2023-05-29T05:11:11;102386.81;;;10.90;100.00
28448;BME280;15675;52.870;-1.416;2023-05-29T05:13:36;102381.78;;;10.96;100.00
28448;BME280;15675;52.870;-1.416;2023-05-29T05:16:02;102388.56;;;10.60;100.00
28448;BME280;15675;52.870;-1.416;2023-05-29T05:18:28;102396.09;;;10.51;100.00
28448;BME280;15675;52.870;-1.416;2023-05-29T05:20:53;102398.78;;;10.54;100.00
28448;BME280;15675;52.870;-1.416;2023-05-29T05:23:19;102399.97;;;10.36;100.00
28448;BME280;15675;52.870;-1.416;2023-05-29T05:25:45;102408.88;;;10.45;100.00
28448;BME280;15675;52.870;-1.416;2023-05-29T05:28:10;102400.72;;;10.61;100.00
28448;BME280;15675;52.870;-1.416;2023-05-29T05:30:36;102400.06;;;10.40;100.00
28448;BME280;15675;52.870;-1.416;2023-05-29T05:33:02;102394.13;;;10.73;100.00
28448;BME280;15675;52.870;-1.416;2023-05-29T05:35:27;102416.50;;;10.40;100.00
28448;BME280;15675;52.870;-1.416;2023-05-29T05:37:53;102403.19;;;10.57;100.00
28448;BME280;15675;52.870;-1.416;2023-05-29T05:40:18;102400.59;;;10.87;100.00
28448;BME280;15675;52.870;-1.416;2023-05-29T05:42:44;102394.25;;;10.77;100.00
28448;BME280;15675;52.870;-1.416;2023-05-29T05:45:10;102400.91;;;10.67;100.00
28448;BME280;15675;52.870;-1.416;2023-05-29T05:47:35;102400.16;;;10.71;100.00
28448;BME280;15675;52.870;-1.416;2023-05-29T05:50:01;102408.97;;;10.77;100.00
28448;BME280;15675;52.870;-1.416;2023-05-29T05:52:26;102399.88;;;10.62;100.00
28448;BME280;15675;52.870;-1.416;2023-05-29T05:54:56;102401.00;;;10.70;100.00
28448;BME280;15675;52.870;-1.416;2023-05-29T05:57:22;102394.22;;;10.76;100.00
28448;BME280;15675;52.870;-1.416;2023-05-29T05:59:47;102401.19;;;10.77;100.00
28448;BME280;15675;52.870;-1.416;2023-05-29T06:02:13;102400.69;;;10.90;100.00
28448;BME280;15675;52.870;-1.416;2023-05-29T06:04:38;102406.53;;;10.83;100.00
28448;BME280;15675;52.870;-1.416;2023-05-29T06:07:04;102399.72;;;10.56;100.00
28448;BME280;15675;52.870;-1.416;2023-05-29T06:09:29;102408.72;;;10.98;100.00
28448;BME280;15675;52.870;-1.416;2023-05-29T06:11:55;102409.19;;;11.15;100.00
28448;BME280;15675;52.870;-1.416;2023-05-29T06:14:20;102405.94;;;11.22;100.00
28448;BME280;15675;52.870;-1.416;2023-05-29T06:16:46;102410.44;;;11.61;100.00
28448;BME280;15675;52.870;-1.416;2023-05-29T06:19:12;102400.75;;;11.89;100.00
28448;BME280;15675;52.870;-1.416;2023-05-29T06:21:37;102410.22;;;12.20;100.00
28448;BME280;15675;52.870;-1.416;2023-05-29T06:24:03;102408.59;;;11.90;100.00
28448;BME280;15675;52.870;-1.416;2023-05-29T06:26:28;102422.63;;;12.32;100.00
28448;BME280;15675;52.870;-1.416;2023-05-29T06:28:54;102416.19;;;12.53;100.00
28448;BME280;15675;52.870;-1.416;2023-05-29T06:31:20;102415.91;;;12.80;100.00
28448;BME280;15675;52.870;-1.416;2023-05-29T06:33:46;102421.91;;;12.38;98.68
28448;BME280;15675;52.870;-1.416;2023-05-29T06:36:11;102422.44;;;12.63;98.38
28448;BME280;15675;52.870;-1.416;2023-05-29T06:38:37;102423.22;;;12.57;98.33
28448;BME280;15675;52.870;-1.416;2023-05-29T06:41:03;102422.09;;;12.87;97.23
28448;BME280;15675;52.870;-1.416;2023-05-29T06:43:28;102425.19;;;12.69;92.21
28448;BME280;15675;52.870;-1.416;2023-05-29T06:45:54;102427.59;;;12.59;91.61
28448;BME280;15675;52.870;-1.416;2023-05-29T06:48:20;102422.75;;;12.76;93.63
28448;BME280;15675;52.870;-1.416;2023-05-29T06:50:47;102434.25;;;12.86;93.09
28448;BME280;15675;52.870;-1.416;2023-05-29T06:53:13;102442.75;;;12.77;90.70
28448;BME280;15675;52.870;-1.416;2023-05-29T06:55:38;102439.09;;;13.10;90.15
28448;BME280;15675;52.870;-1.416;2023-05-29T06:58:06;102437.19;;;13.02;88.08
28448;BME280;15675;52.870;-1.416;2023-05-29T07:00:32;102436.13;;;12.93;87.19
28448;BME280;15675;52.870;-1.416;2023-05-29T07:02:57;102437.09;;;12.57;86.22
28448;BME280;15675;52.870;-1.416;2023-05-29T07:05:23;102439.78;;;12.60;85.10
28448;BME280;15675;52.870;-1.416;2023-05-29T07:07:49;102419.19;;;12.71;85.20
28448;BME280;15675;52.870;-1.416;2023-05-29T07:10:14;102429.38;;;12.62;82.59
28448;BME280;15675;52.870;-1.416;2023-05-29T07:12:40;102436.25;;;12.57;83.29
28448;BME280;15675;52.870;-1.416;2023-05-29T07:15:06;102428.16;;;12.84;82.09
28448;BME280;15675;52.870;-1.416;2023-05-29T07:17:31;102426.88;;;12.67;81.43
28448;BME280;15675;52.870;-1.416;2023-05-29T07:19:57;102430.34;;;13.07;82.48
28448;BME280;15675;52.870;-1.416;2023-05-29T07:22:22;102422.28;;;12.96;79.47
28448;BME280;15675;52.870;-1.416;2023-05-29T07:24:48;102424.06;;;12.97;77.46
28448;BME280;15675;52.870;-1.416;2023-05-29T07:27:13;102426.47;;;13.32;78.73
28448;BME280;15675;52.870;-1.416;2023-05-29T07:29:39;102420.84;;;13.10;76.40
28448;BME280;15675;52.870;-1.416;2023-05-29T07:32:05;102423.47;;;13.12;74.91
28448;BME280;15675;52.870;-1.416;2023-05-29T07:34:30;102422.91;;;12.83;74.95
28448;BME280;15675;52.870;-1.416;2023-05-29T07:37:03;102421.25;;;13.32;75.89
28448;BME280;15675;52.870;-1.416;2023-05-29T07:39:33;102440.59;;;13.40;75.28
28448;BME280;15675;52.870;-1.416;2023-05-29T07:42:00;102438.88;;;13.42;73.12
28448;BME280;15675;52.870;-1.416;2023-05-29T07:44:26;102437.66;;;13.26;71.98
28448;BME280;15675;52.870;-1.416;2023-05-29T07:46:52;102424.59;;;12.82;71.09
28448;BME280;15675;52.870;-1.416;2023-05-29T07:49:18;102438.75;;;12.93;71.66
28448;BME280;15675;52.870;-1.416;2023-05-29T07:51:44;102438.13;;;12.64;72.17
28448;BME280;15675;52.870;-1.416;2023-05-29T07:54:10;102452.00;;;12.63;72.62
28448;BME280;15675;52.870;-1.416;2023-05-29T07:56:36;102455.50;;;12.65;70.66
28448;BME280;15675;52.870;-1.416;2023-05-29T07:59:02;102444.59;;;13.24;71.64
28448;BME280;15675;52.870;-1.416;2023-05-29T08:01:29;102445.75;;;13.37;70.37
28448;BME280;15675;52.870;-1.416;2023-05-29T08:03:55;102438.22;;;13.53;71.89
28448;BME280;15675;52.870;-1.416;2023-05-29T08:06:20;102446.63;;;13.38;70.07
28448;BME280;15675;52.870;-1.416;2023-05-29T08:08:46;102449.19;;;13.36;69.66
28448;BME280;15675;52.870;-1.416;2023-05-29T08:11:11;102441.97;;;13.67;70.60
28448;BME280;15675;52.870;-1.416;2023-05-29T08:13:37;102454.47;;;13.39;70.68
28448;BME280;15675;52.870;-1.416;2023-05-29T08:16:03;102461.63;;;13.07;70.24
28448;BME280;15675;52.870;-1.416;2023-05-29T08:18:30;102461.50;;;13.43;70.68
28448;BME280;15675;52.870;-1.416;2023-05-29T08:20:56;102458.69;;;13.34;69.61
28448;BME280;15675;52.870;-1.416;2023-05-29T08:23:22;102457.66;;;12.83;68.64
28448;BME280;15675;52.870;-1.416;2023-05-29T08:25:48;102465.72;;;12.94;69.12
28448;BME280;15675;52.870;-1.416;2023-05-29T08:28:14;102456.09;;;12.91;70.90
28448;BME280;15675;52.870;-1.416;2023-05-29T08:30:40;102472.34;;;13.22;72.51
28448;BME280;15675;52.870;-1.416;2023-05-29T08:33:06;102468.41;;;12.99;70.80
28448;BME280;15675;52.870;-1.416;2023-05-29T08:35:32;102475.59;;;13.10;72.23
28448;BME280;15675;52.870;-1.416;2023-05-29T08:37:58;102468.03;;;13.23;72.02
28448;BME280;15675;52.870;-1.416;2023-05-29T08:40:24;102463.19;;;13.40;73.85
28448;BME280;15675;52.870;-1.416;2023-05-29T08:43:39;102467.81;;;13.12;69.97
28448;BME280;15675;52.870;-1.416;2023-05-29T08:45:42;102466.63;;;13.37;70.58
28448;BME280;15675;52.870;-1.416;2023-05-29T08:48:09;102471.16;;;13.48;69.14
28448;BME280;15675;52.870;-1.416;2023-05-29T08:50:46;102472.69;;;13.85;69.96
28448;BME280;15675;52.870;-1.416;2023-05-29T08:53:15;102470.72;;;13.70;67.77
28448;BME280;15675;52.870;-1.416;2023-05-29T08:55:42;102462.75;;;13.62;69.65
28448;BME280;15675;52.870;-1.416;2023-05-29T08:58:08;102468.19;;;14.25;68.88
28448;BME280;15675;52.870;-1.416;2023-05-29T09:00:35;102467.78;;;13.53;67.63
28448;BME280;15675;52.870;-1.416;2023-05-29T09:03:00;102470.28;;;13.47;68.43
28448;BME280;15675;52.870;-1.416;2023-05-29T09:05:26;102465.81;;;13.87;72.56
28448;BME280;15675;52.870;-1.416;2023-05-29T09:07:56;102467.66;;;13.45;70.49
28448;BME280;15675;52.870;-1.416;2023-05-29T09:10:22;102473.72;;;13.44;69.51
28448;BME280;15675;52.870;-1.416;2023-05-29T09:12:48;102474.13;;;13.66;69.77
28448;BME280;15675;52.870;-1.416;2023-05-29T09:15:21;102481.59;;;13.96;71.60
28448;BME280;15675;52.870;-1.416;2023-05-29T09:17:54;102484.28;;;13.98;69.91
28448;BME280;15675;52.870;-1.416;2023-05-29T09:20:21;102480.72;;;13.94;69.76
28448;BME280;15675;52.870;-1.416;2023-05-29T09:22:54;102485.13;;;13.97;70.14
28448;BME280;15675;52.870;-1.416;2023-05-29T09:25:24;102480.75;;;13.97;70.28
28448;BME280;15675;52.870;-1.416;2023-05-29T09:27:51;102470.78;;;13.75;68.94
28448;BME280;15675;52.870;-1.416;2023-05-29T09:30:34;102480.38;;;13.76;68.28
28448;BME280;15675;52.870;-1.416;2023-05-29T09:33:00;102481.91;;;14.15;69.83
28448;BME280;15675;52.870;-1.416;2023-05-29T09:35:43;102481.16;;;14.21;69.78
28448;BME280;15675;52.870;-1.416;2023-05-29T09:38:11;102476.81;;;14.20;68.80
28448;BME280;15675;52.870;-1.416;2023-05-29T09:40:38;102481.72;;;14.03;69.86
28448;BME280;15675;52.870;-1.416;2023-05-29T09:43:17;102484.91;;;13.86;69.94
28448;BME280;15675;52.870;-1.416;2023-05-29T09:45:52;102482.69;;;13.60;72.59
28448;BME280;15675;52.870;-1.416;2023-05-29T09:48:23;102484.50;;;13.63;71.94
28448;BME280;15675;52.870;-1.416;2023-05-29T09:50:49;102482.19;;;13.78;71.89
28448;BME280;15675;52.870;-1.416;2023-05-29T09:53:22;102477.25;;;13.95;71.66
28448;BME280;15675;52.870;-1.416;2023-05-29T09:55:51;102478.13;;;13.96;70.73
28448;BME280;15675;52.870;-1.416;2023-05-29T09:58:23;102476.59;;;13.58;72.34
28448;BME280;15675;52.870;-1.416;2023-05-29T10:00:50;102472.28;;;13.60;73.72
28448;BME280;15675;52.870;-1.416;2023-05-29T10:03:17;102474.06;;;13.63;73.28
28448;BME280;15675;52.870;-1.416;2023-05-29T10:05:47;102466.91;;;14.02;72.56
28448;BME280;15675;52.870;-1.416;2023-05-29T10:08:15;102469.53;;;14.03;72.03
28448;BME280;15675;52.870;-1.416;2023-05-29T10:10:45;102469.63;;;14.09;70.74
28448;BME280;15675;52.870;-1.416;2023-05-29T10:13:13;102462.16;;;13.79;71.10
28448;BME280;15675;52.870;-1.416;2023-05-29T10:15:41;102462.38;;;14.45;72.35
28448;BME280;15675;52.870;-1.416;2023-05-29T10:18:24;102466.22;;;14.13;70.11
28448;BME280;15675;52.870;-1.416;2023-05-29T10:20:51;102467.91;;;14.08;71.13
28448;BME280;15675;52.870;-1.416;2023-05-29T10:23:21;102471.38;;;14.07;69.67
28448;BME280;15675;52.870;-1.416;2023-05-29T10:25:51;102478.06;;;14.46;69.43
28448;BME280;15675;52.870;-1.416;2023-05-29T10:28:17;102473.34;;;14.22;70.37
28448;BME280;15675;52.870;-1.416;2023-05-29T10:30:51;102477.97;;;14.39;71.53
28448;BME280;15675;52.870;-1.416;2023-05-29T10:38:40;102459.72;;;15.03;67.03
28448;BME280;15675;52.870;-1.416;2023-05-29T10:44:00;102466.16;;;15.28;69.12
28448;BME280;15675;52.870;-1.416;2023-05-29T10:49:17;102461.34;;;14.93;68.30
28448;BME280;15675;52.870;-1.416;2023-05-29T10:51:43;102462.38;;;14.46;68.96
28448;BME280;15675;52.870;-1.416;2023-05-29T10:54:09;102461.00;;;14.69;70.00
28448;BME280;15675;52.870;-1.416;2023-05-29T10:56:36;102448.66;;;15.26;69.36
28448;BME280;15675;52.870;-1.416;2023-05-29T10:59:02;102456.88;;;15.58;71.18
28448;BME280;15675;52.870;-1.416;2023-05-29T11:01:29;102450.72;;;15.56;66.83
28448;BME280;15675;52.870;-1.416;2023-05-29T11:06:41;102457.00;;;14.94;67.69
28448;BME280;15675;52.870;-1.416;2023-05-29T11:09:26;102455.50;;;15.14;70.45
28448;BME280;15675;52.870;-1.416;2023-05-29T11:12:11;102463.78;;;14.79;69.45
28448;BME280;15675;52.870;-1.416;2023-05-29T11:14:46;102448.41;;;15.04;68.55
28448;BME280;15675;52.870;-1.416;2023-05-29T11:20:07;102451.06;;;15.06;70.95
28448;BME280;15675;52.870;-1.416;2023-05-29T11:25:24;102436.66;;;15.45;68.22
28448;BME280;15675;52.870;-1.416;2023-05-29T11:27:50;102446.69;;;15.87;69.23
28448;BME280;15675;52.870;-1.416;2023-05-29T11:30:21;102441.78;;;15.32;65.00
28448;BME280;15675;52.870;-1.416;2023-05-29T11:32:47;102452.09;;;15.22;66.50
28448;BME280;15675;52.870;-1.416;2023-05-29T11:35:13;102448.72;;;15.32;66.39
28448;BME280;15675;52.870;-1.416;2023-05-29T11:37:40;102449.06;;;15.63;66.22
28448;BME280;15675;52.870;-1.416;2023-05-29T11:40:09;102432.88;;;16.02;67.17
28448;BME280;15675;52.870;-1.416;2023-05-29T11:42:35;102436.91;;;15.68;62.75
28448;BME280;15675;52.870;-1.416;2023-05-29T11:45:20;102439.53;;;15.66;63.52
28448;BME280;15675;52.870;-1.416;2023-05-29T11:47:52;102433.84;;;16.15;66.22
28448;BME280;15675;52.870;-1.416;2023-05-29T11:50:22;102444.34;;;16.18;67.04
28448;BME280;15675;52.870;-1.416;2023-05-29T11:52:48;102431.19;;;16.08;64.07
28448;BME280;15675;52.870;-1.416;2023-05-29T11:55:13;102436.72;;;16.49;65.60
28448;BME280;15675;52.870;-1.416;2023-05-29T11:57:39;102440.16;;;16.41;66.29
28448;BME280;15675;52.870;-1.416;2023-05-29T12:00:07;102435.66;;;16.26;63.74
28448;BME280;15675;52.870;-1.416;2023-05-29T12:02:36;102434.50;;;15.88;62.31
28448;BME280;15675;52.870;-1.416;2023-05-29T12:05:02;102432.00;;;16.02;62.28
28448;BME280;15675;52.870;-1.416;2023-05-29T12:07:29;102432.94;;;16.12;60.80
28448;BME280;15675;52.870;-1.416;2023-05-29T12:09:55;102438.22;;;16.13;62.95
28448;BME280;15675;52.870;-1.416;2023-05-29T12:12:26;102427.91;;;16.38;63.23
28448;BME280;15675;52.870;-1.416;2023-05-29T12:14:53;102426.81;;;16.11;62.26
28448;BME280;15675;52.870;-1.416;2023-05-29T12:17:20;102426.97;;;16.31;63.61
28448;BME280;15675;52.870;-1.416;2023-05-29T12:19:46;102429.78;;;16.58;63.75
28448;BME280;15675;52.870;-1.416;2023-05-29T12:22:11;102421.63;;;16.17;63.21
28448;BME280;15675;52.870;-1.416;2023-05-29T12:24:37;102427.94;;;16.44;62.02
28448;BME280;15675;52.870;-1.416;2023-05-29T12:27:06;102419.19;;;16.37;62.11
28448;BME280;15675;52.870;-1.416;2023-05-29T12:29:33;102426.94;;;16.25;63.96
28448;BME280;15675;52.870;-1.416;2023-05-29T12:31:58;102423.53;;;16.42;62.88
28448;BME280;15675;52.870;-1.416;2023-05-29T12:34:24;102423.28;;;16.06;61.92
28448;BME280;15675;52.870;-1.416;2023-05-29T12:36:50;102410.38;;;16.26;62.10
28448;BME280;15675;52.870;-1.416;2023-05-29T12:39:16;102414.81;;;16.41;63.70
28448;BME280;15675;52.870;-1.416;2023-05-29T12:41:41;102414.06;;;16.65;62.72
28448;BME280;15675;52.870;-1.416;2023-05-29T12:44:07;102417.66;;;16.84;63.73
28448;BME280;15675;52.870;-1.416;2023-05-29T12:46:39;102409.69;;;16.64;62.21
28448;BME280;15675;52.870;-1.416;2023-05-29T12:51:40;102411.59;;;16.90;63.49
28448;BME280;15675;52.870;-1.416;2023-05-29T12:54:06;102416.63;;;16.53;62.05
28448;BME280;15675;52.870;-1.416;2023-05-29T12:56:31;102422.78;;;16.60;64.53
28448;BME280;15675;52.870;-1.416;2023-05-29T12:58:57;102417.28;;;16.18;64.76
28448;BME280;15675;52.870;-1.416;2023-05-29T13:01:22;102416.56;;;16.42;62.32
28448;BME280;15675;52.870;-1.416;2023-05-29T13:03:49;102416.59;;;16.48;61.73